sensor_id;sensor_type;location;lat;lon;timestamp;temperature;humidity
17200;DHT22;8716;52.268;20.968;2022-10-03T00:02:29;11.20;99.90
17200;DHT22;8716;52.268;20.968;2022-10-03T00:05:07;11.30;99.90
17200;DHT22;8716;52.268;20.968;2022-10-03T00:07:54;11.30;99.90
17200;DHT22;8716;52.268;20.968;2022-10-03T00:10:33;11.30;99.90
17200;DHT22;8716;52.268;20.968;2022-10-03T00:13:08;11.30;99.90
17200;DHT22;8716;52.268;20.968;2022-10-03T00:15:45;11.40;99.90
17200;DHT22;8716;52.268;20.968;2022-10-03T00:18:23;11.40;99.90
17200;DHT22;8716;52.268;20.968;2022-10-03T00:21:20;11.40;99.90
17200;DHT22;8716;52.268;20.968;2022-10-03T00:24:00;11.40;99.90
17200;DHT22;8716;52.268;20.968;2022-10-03T00:26:40;11.40;99.90
17200;DHT22;8716;52.268;20.968;2022-10-03T00:29:25;11.40;99.90
17200;DHT22;8716;52.268;20.968;2022-10-03T00:32:01;11.30;99.90
17200;DHT22;8716;52.268;20.968;2022-10-03T00:34:46;11.40;99.90
17200;DHT22;8716;52.268;20.968;2022-10-03T00:37:23;11.30;99.90
17200;DHT22;8716;52.268;20.968;2022-10-03T00:40:33;11.30;99.90
17200;DHT22;8716;52.268;20.968;2022-10-03T00:43:27;11.30;99.90
17200;DHT22;8716;52.268;20.968;2022-10-03T00:49:55;11.30;99.90
17200;DHT22;8716;52.268;20.968;2022-10-03T00:52:39;11.30;99.90
17200;DHT22;8716;52.268;20.968;2022-10-03T00:55:20;11.30;99.90
17200;DHT22;8716;52.268;20.968;2022-10-03T00:58:09;11.20;99.90
17200;DHT22;8716;52.268;20.968;2022-10-03T01:00:49;11.30;99.90
17200;DHT22;8716;52.268;20.968;2022-10-03T01:03:32;11.20;99.90
17200;DHT22;8716;52.268;20.968;2022-10-03T01:06:22;11.20;99.90
17200;DHT22;8716;52.268;20.968;2022-10-03T01:09:19;11.20;99.90
17200;DHT22;8716;52.268;20.968;2022-10-03T01:12:06;11.20;99.90
17200;DHT22;8716;52.268;20.968;2022-10-03T01:14:48;11.20;99.90
17200;DHT22;8716;52.268;20.968;2022-10-03T01:17:32;11.10;99.90
17200;DHT22;8716;52.268;20.968;2022-10-03T01:20:15;11.20;99.90
17200;DHT22;8716;52.268;20.968;2022-10-03T01:23:11;11.10;99.90
17200;DHT22;8716;52.268;20.968;2022-10-03T01:25:49;11.20;99.90
17200;DHT22;8716;52.268;20.968;2022-10-03T01:28:42;11.20;99.90
17200;DHT22;8716;52.268;20.968;2022-10-03T01:31:36;11.20;99.90
17200;DHT22;8716;52.268;20.968;2022-10-03T01:34:12;11.30;99.90
17200;DHT22;8716;52.268;20.968;2022-10-03T01:36:51;11.30;99.90
17200;DHT22;8716;52.268;20.968;2022-10-03T01:39:25;11.30;99.90
17200;DHT22;8716;52.268;20.968;2022-10-03T01:41:57;11.30;99.90
17200;DHT22;8716;52.268;20.968;2022-10-03T01:44:38;11.30;99.90
17200;DHT22;8716;52.268;20.968;2022-10-03T01:47:22;11.30;99.90
17200;DHT22;8716;52.268;20.968;2022-10-03T01:50:00;11.30;99.90
17200;DHT22;8716;52.268;20.968;2022-10-03T01:52:40;11.30;99.90
17200;DHT22;8716;52.268;20.968;2022-10-03T01:55:19;11.30;99.90
17200;DHT22;8716;52.268;20.968;2022-10-03T01:57:54;11.20;99.90
17200;DHT22;8716;52.268;20.968;2022-10-03T02:00:32;11.30;99.90
17200;DHT22;8716;52.268;20.968;2022-10-03T02:03:08;11.30;99.90
17200;DHT22;8716;52.268;20.968;2022-10-03T02:05:41;11.30;99.90
17200;DHT22;8716;52.268;20.968;2022-10-03T02:08:26;11.30;99.90
17200;DHT22;8716;52.268;20.968;2022-10-03T02:11:00;11.30;99.90
17200;DHT22;8716;52.268;20.968;2022-10-03T02:13:39;11.40;99.90
17200;DHT22;8716;52.268;20.968;2022-10-03T02:16:15;11.40;99.90
17200;DHT22;8716;52.268;20.968;2022-10-03T02:18:50;11.40;99.90
17200;DHT22;8716;52.268;20.968;2022-10-03T02:21:23;11.30;99.90
17200;DHT22;8716;52.268;20.968;2022-10-03T02:24:07;11.40;99.90
17200;DHT22;8716;52.268;20.968;2022-10-03T02:30:10;11.50;99.90
17200;DHT22;8716;52.268;20.968;2022-10-03T02:39:33;11.50;99.90
17200;DHT22;8716;52.268;20.968;2022-10-03T02:51:54;11.50;99.90
17200;DHT22;8716;52.268;20.968;2022-10-03T02:54:52;11.40;99.90
17200;DHT22;8716;52.268;20.968;2022-10-03T02:57:42;11.40;99.90
17200;DHT22;8716;52.268;20.968;2022-10-03T03:00:18;11.30;99.90
17200;DHT22;8716;52.268;20.968;2022-10-03T03:03:14;11.40;99.90
17200;DHT22;8716;52.268;20.968;2022-10-03T03:06:15;11.50;99.90
17200;DHT22;8716;52.268;20.968;2022-10-03T03:15:40;11.50;99.90
17200;DHT22;8716;52.268;20.968;2022-10-03T03:18:21;11.50;99.90
17200;DHT22;8716;52.268;20.968;2022-10-03T03:21:03;11.50;99.90
17200;DHT22;8716;52.268;20.968;2022-10-03T03:23:57;11.50;99.90
17200;DHT22;8716;52.268;20.968;2022-10-03T03:26:45;11.50;99.90
17200;DHT22;8716;52.268;20.968;2022-10-03T03:29:27;11.60;99.90
17200;DHT22;8716;52.268;20.968;2022-10-03T03:32:03;11.60;99.90
17200;DHT22;8716;52.268;20.968;2022-10-03T03:34:38;11.60;99.90
17200;DHT22;8716;52.268;20.968;2022-10-03T03:37:15;11.50;99.90
17200;DHT22;8716;52.268;20.968;2022-10-03T03:40:01;11.50;99.90
17200;DHT22;8716;52.268;20.968;2022-10-03T03:42:53;11.50;99.90
17200;DHT22;8716;52.268;20.968;2022-10-03T03:45:42;11.50;99.90
17200;DHT22;8716;52.268;20.968;2022-10-03T03:48:25;11.50;99.90
17200;DHT22;8716;52.268;20.968;2022-10-03T03:51:09;11.60;99.90
17200;DHT22;8716;52.268;20.968;2022-10-03T03:56:42;11.70;99.90
17200;DHT22;8716;52.268;20.968;2022-10-03T03:59:25;11.60;99.90
17200;DHT22;8716;52.268;20.968;2022-10-03T04:02:10;11.60;99.90
17200;DHT22;8716;52.268;20.968;2022-10-03T04:04:53;11.70;99.90
17200;DHT22;8716;52.268;20.968;2022-10-03T04:07:33;11.70;99.90
17200;DHT22;8716;52.268;20.968;2022-10-03T04:10:17;11.70;99.90
17200;DHT22;8716;52.268;20.968;2022-10-03T04:13:04;11.70;99.90
17200;DHT22;8716;52.268;20.968;2022-10-03T04:15:55;11.60;99.90
17200;DHT22;8716;52.268;20.968;2022-10-03T04:18:39;11.60;99.90
17200;DHT22;8716;52.268;20.968;2022-10-03T04:24:54;11.70;99.90
17200;DHT22;8716;52.268;20.968;2022-10-03T04:27:44;11.70;99.90
17200;DHT22;8716;52.268;20.968;2022-10-03T04:30:17;11.70;99.90
17200;DHT22;8716;52.268;20.968;2022-10-03T04:33:01;11.80;99.90
17200;DHT22;8716;52.268;20.968;2022-10-03T04:36:11;11.80;99.90
17200;DHT22;8716;52.268;20.968;2022-10-03T04:38:45;11.70;99.90
17200;DHT22;8716;52.268;20.968;2022-10-03T04:41:25;11.70;99.90
17200;DHT22;8716;52.268;20.968;2022-10-03T04:44:02;11.70;99.90
17200;DHT22;8716;52.268;20.968;2022-10-03T04:46:41;11.70;99.90
17200;DHT22;8716;52.268;20.968;2022-10-03T04:49:21;11.70;99.90
17200;DHT22;8716;52.268;20.968;2022-10-03T04:52:00;11.70;99.90
17200;DHT22;8716;52.268;20.968;2022-10-03T04:54:38;11.60;99.90
17200;DHT22;8716;52.268;20.968;2022-10-03T04:57:19;11.60;99.90
17200;DHT22;8716;52.268;20.968;2022-10-03T04:59:52;11.60;99.90
17200;DHT22;8716;52.268;20.968;2022-10-03T05:02:34;11.60;99.90
17200;DHT22;8716;52.268;20.968;2022-10-03T05:05:33;11.60;99.90
17200;DHT22;8716;52.268;20.968;2022-10-03T05:08:18;11.60;99.90
17200;DHT22;8716;52.268;20.968;2022-10-03T05:11:08;11.60;99.90
17200;DHT22;8716;52.268;20.968;2022-10-03T05:13:48;11.50;99.90
17200;DHT22;8716;52.268;20.968;2022-10-03T05:16:30;11.50;99.90
17200;DHT22;8716;52.268;20.968;2022-10-03T05:19:09;11.60;99.90
17200;DHT22;8716;52.268;20.968;2022-10-03T05:21:49;11.60;99.90
17200;DHT22;8716;52.268;20.968;2022-10-03T05:24:30;11.60;99.90
17200;DHT22;8716;52.268;20.968;2022-10-03T05:27:14;11.60;99.90
17200;DHT22;8716;52.268;20.968;2022-10-03T05:29:52;11.60;99.90
17200;DHT22;8716;52.268;20.968;2022-10-03T05:32:29;11.70;99.90
17200;DHT22;8716;52.268;20.968;2022-10-03T05:35:11;11.70;99.90
17200;DHT22;8716;52.268;20.968;2022-10-03T05:37:58;11.70;99.90
17200;DHT22;8716;52.268;20.968;2022-10-03T05:40:31;11.70;99.90
17200;DHT22;8716;52.268;20.968;2022-10-03T05:43:05;11.80;99.90
17200;DHT22;8716;52.268;20.968;2022-10-03T05:45:46;11.80;99.90
17200;DHT22;8716;52.268;20.968;2022-10-03T05:48:28;11.80;99.90
17200;DHT22;8716;52.268;20.968;2022-10-03T05:51:07;11.80;99.90
17200;DHT22;8716;52.268;20.968;2022-10-03T05:54:02;11.80;99.90
17200;DHT22;8716;52.268;20.968;2022-10-03T05:56:50;11.90;99.90
17200;DHT22;8716;52.268;20.968;2022-10-03T05:59:55;12.00;99.90
17200;DHT22;8716;52.268;20.968;2022-10-03T06:02:57;12.00;99.90
17200;DHT22;8716;52.268;20.968;2022-10-03T06:05:34;12.10;99.90
17200;DHT22;8716;52.268;20.968;2022-10-03T06:08:28;12.10;99.90
17200;DHT22;8716;52.268;20.968;2022-10-03T06:11:18;12.10;99.90
17200;DHT22;8716;52.268;20.968;2022-10-03T06:16:54;12.20;99.90
17200;DHT22;8716;52.268;20.968;2022-10-03T06:19:39;12.20;99.90
17200;DHT22;8716;52.268;20.968;2022-10-03T06:22:34;12.20;99.90
17200;DHT22;8716;52.268;20.968;2022-10-03T06:25:25;12.30;99.90
17200;DHT22;8716;52.268;20.968;2022-10-03T06:34:44;12.50;99.90
17200;DHT22;8716;52.268;20.968;2022-10-03T06:37:44;12.40;99.90
17200;DHT22;8716;52.268;20.968;2022-10-03T06:43:53;12.40;99.90
17200;DHT22;8716;52.268;20.968;2022-10-03T06:50:07;12.40;99.90
17200;DHT22;8716;52.268;20.968;2022-10-03T06:53:02;12.30;99.90
17200;DHT22;8716;52.268;20.968;2022-10-03T06:56:01;12.30;99.90
17200;DHT22;8716;52.268;20.968;2022-10-03T06:59:01;12.30;99.90
17200;DHT22;8716;52.268;20.968;2022-10-03T07:01:58;12.30;99.90
17200;DHT22;8716;52.268;20.968;2022-10-03T07:11:39;12.40;99.90
17200;DHT22;8716;52.268;20.968;2022-10-03T07:14:37;12.40;99.90
17200;DHT22;8716;52.268;20.968;2022-10-03T07:20:43;12.50;99.90
17200;DHT22;8716;52.268;20.968;2022-10-03T07:26:56;12.60;99.90
17200;DHT22;8716;52.268;20.968;2022-10-03T07:32:43;12.60;99.90
17200;DHT22;8716;52.268;20.968;2022-10-03T07:35:38;12.60;99.90
17200;DHT22;8716;52.268;20.968;2022-10-03T07:38:55;12.70;99.90
17200;DHT22;8716;52.268;20.968;2022-10-03T07:41:41;12.80;99.90
17200;DHT22;8716;52.268;20.968;2022-10-03T07:47:38;13.20;99.90
17200;DHT22;8716;52.268;20.968;2022-10-03T07:56:32;13.30;99.90
17200;DHT22;8716;52.268;20.968;2022-10-03T07:59:25;13.30;99.90
17200;DHT22;8716;52.268;20.968;2022-10-03T08:02:14;13.30;99.90
17200;DHT22;8716;52.268;20.968;2022-10-03T08:05:05;13.40;99.90
17200;DHT22;8716;52.268;20.968;2022-10-03T08:08:00;13.40;99.90
17200;DHT22;8716;52.268;20.968;2022-10-03T08:10:57;13.40;99.90
17200;DHT22;8716;52.268;20.968;2022-10-03T08:13:39;13.40;99.90
17200;DHT22;8716;52.268;20.968;2022-10-03T08:16:28;13.40;99.90
17200;DHT22;8716;52.268;20.968;2022-10-03T08:19:20;13.30;99.90
17200;DHT22;8716;52.268;20.968;2022-10-03T08:22:02;13.40;99.90
17200;DHT22;8716;52.268;20.968;2022-10-03T08:24:55;13.30;99.90
17200;DHT22;8716;52.268;20.968;2022-10-03T08:27:50;13.40;99.90
17200;DHT22;8716;52.268;20.968;2022-10-03T08:30:23;13.50;99.90
17200;DHT22;8716;52.268;20.968;2022-10-03T08:33:18;13.60;99.90
17200;DHT22;8716;52.268;20.968;2022-10-03T08:39:29;13.60;99.90
17200;DHT22;8716;52.268;20.968;2022-10-03T08:42:27;13.70;99.90
17200;DHT22;8716;52.268;20.968;2022-10-03T09:01:10;13.70;99.90
17200;DHT22;8716;52.268;20.968;2022-10-03T09:07:17;13.70;99.90
17200;DHT22;8716;52.268;20.968;2022-10-03T09:13:21;13.70;99.90
17200;DHT22;8716;52.268;20.968;2022-10-03T09:19:19;13.80;99.90
17200;DHT22;8716;52.268;20.968;2022-10-03T09:22:08;13.80;99.90
17200;DHT22;8716;52.268;20.968;2022-10-03T09:28:08;13.70;99.90
17200;DHT22;8716;52.268;20.968;2022-10-03T09:30:52;13.80;99.90
17200;DHT22;8716;52.268;20.968;2022-10-03T09:34:06;13.70;99.90
17200;DHT22;8716;52.268;20.968;2022-10-03T09:37:10;13.70;99.90
17200;DHT22;8716;52.268;20.968;2022-10-03T09:40:03;13.70;99.90
17200;DHT22;8716;52.268;20.968;2022-10-03T09:43:10;13.60;99.90
17200;DHT22;8716;52.268;20.968;2022-10-03T09:46:10;13.60;99.90
17200;DHT22;8716;52.268;20.968;2022-10-03T09:49:11;13.60;99.90
17200;DHT22;8716;52.268;20.968;2022-10-03T09:51:57;13.60;99.90
17200;DHT22;8716;52.268;20.968;2022-10-03T09:54:59;13.50;99.90
17200;DHT22;8716;52.268;20.968;2022-10-03T09:58:00;13.50;99.90
17200;DHT22;8716;52.268;20.968;2022-10-03T10:00:39;13.50;99.90
17200;DHT22;8716;52.268;20.968;2022-10-03T10:03:38;13.60;99.90
17200;DHT22;8716;52.268;20.968;2022-10-03T10:06:30;13.60;99.90
17200;DHT22;8716;52.268;20.968;2022-10-03T10:09:35;13.70;99.90
17200;DHT22;8716;52.268;20.968;2022-10-03T10:12:20;13.80;99.90
17200;DHT22;8716;52.268;20.968;2022-10-03T10:15:16;13.80;99.90
17200;DHT22;8716;52.268;20.968;2022-10-03T10:18:20;13.90;99.90
17200;DHT22;8716;52.268;20.968;2022-10-03T10:30:38;14.00;99.90
17200;DHT22;8716;52.268;20.968;2022-10-03T10:33:33;14.10;99.90
17200;DHT22;8716;52.268;20.968;2022-10-03T10:40:10;14.10;99.90
17200;DHT22;8716;52.268;20.968;2022-10-03T10:43:22;14.10;99.90
17200;DHT22;8716;52.268;20.968;2022-10-03T10:46:11;14.10;99.90
17200;DHT22;8716;52.268;20.968;2022-10-03T10:49:16;14.10;99.90
17200;DHT22;8716;52.268;20.968;2022-10-03T11:11:39;14.00;99.90
17200;DHT22;8716;52.268;20.968;2022-10-03T11:21:13;14.40;99.90
17200;DHT22;8716;52.268;20.968;2022-10-03T11:24:15;14.60;99.90
17200;DHT22;8716;52.268;20.968;2022-10-03T11:30:16;15.00;99.90
17200;DHT22;8716;52.268;20.968;2022-10-03T11:33:23;15.20;99.90
17200;DHT22;8716;52.268;20.968;2022-10-03T11:39:03;15.50;99.90
17200;DHT22;8716;52.268;20.968;2022-10-03T11:41:43;15.60;99.90
17200;DHT22;8716;52.268;20.968;2022-10-03T11:44:20;15.80;99.90
17200;DHT22;8716;52.268;20.968;2022-10-03T11:47:11;15.90;99.90
17200;DHT22;8716;52.268;20.968;2022-10-03T11:53:21;15.90;99.90
17200;DHT22;8716;52.268;20.968;2022-10-03T11:56:01;15.90;99.90
17200;DHT22;8716;52.268;20.968;2022-10-03T11:58:49;16.00;99.90
17200;DHT22;8716;52.268;20.968;2022-10-03T12:01:26;16.10;99.90
17200;DHT22;8716;52.268;20.968;2022-10-03T12:04:06;16.10;99.90
17200;DHT22;8716;52.268;20.968;2022-10-03T12:06:58;16.30;99.90
17200;DHT22;8716;52.268;20.968;2022-10-03T12:09:57;16.40;99.90
17200;DHT22;8716;52.268;20.968;2022-10-03T12:12:33;16.40;99.90
17200;DHT22;8716;52.268;20.968;2022-10-03T12:15:17;16.40;99.90
17200;DHT22;8716;52.268;20.968;2022-10-03T12:17:54;16.30;99.90
17200;DHT22;8716;52.268;20.968;2022-10-03T12:20:31;16.30;99.90
17200;DHT22;8716;52.268;20.968;2022-10-03T12:23:11;16.40;99.90
17200;DHT22;8716;52.268;20.968;2022-10-03T12:25:51;16.40;99.90
17200;DHT22;8716;52.268;20.968;2022-10-03T12:28:22;16.50;99.90
17200;DHT22;8716;52.268;20.968;2022-10-03T12:30:54;16.60;99.90
17200;DHT22;8716;52.268;20.968;2022-10-03T12:33:34;16.60;99.90
17200;DHT22;8716;52.268;20.968;2022-10-03T12:36:10;16.80;99.90
17200;DHT22;8716;52.268;20.968;2022-10-03T12:38:53;16.80;99.90
17200;DHT22;8716;52.268;20.968;2022-10-03T12:41:39;16.80;99.90
17200;DHT22;8716;52.268;20.968;2022-10-03T12:44:18;16.90;99.90
17200;DHT22;8716;52.268;20.968;2022-10-03T12:47:00;17.00;99.90
17200;DHT22;8716;52.268;20.968;2022-10-03T12:49:42;17.10;99.90
17200;DHT22;8716;52.268;20.968;2022-10-03T12:52:19;17.00;99.90
17200;DHT22;8716;52.268;20.968;2022-10-03T12:54:52;17.00;99.90
17200;DHT22;8716;52.268;20.968;2022-10-03T12:57:46;17.00;99.90
17200;DHT22;8716;52.268;20.968;2022-10-03T13:00:21;17.00;99.90
17200;DHT22;8716;52.268;20.968;2022-10-03T13:03:09;17.10;99.90
17200;DHT22;8716;52.268;20.968;2022-10-03T13:06:22;17.20;99.90
17200;DHT22;8716;52.268;20.968;2022-10-03T13:09:21;17.30;99.90
17200;DHT22;8716;52.268;20.968;2022-10-03T13:12:01;17.20;99.90
17200;DHT22;8716;52.268;20.968;2022-10-03T13:18:03;17.30;99.90
17200;DHT22;8716;52.268;20.968;2022-10-03T13:20:42;17.30;99.90
17200;DHT22;8716;52.268;20.968;2022-10-03T13:23:21;17.10;99.90
17200;DHT22;8716;52.268;20.968;2022-10-03T13:25:58;17.10;99.90
17200;DHT22;8716;52.268;20.968;2022-10-03T13:28:41;16.90;99.90
17200;DHT22;8716;52.268;20.968;2022-10-03T13:31:21;16.70;99.90
17200;DHT22;8716;52.268;20.968;2022-10-03T13:33:53;16.60;99.90
17200;DHT22;8716;52.268;20.968;2022-10-03T13:36:25;16.40;99.90
17200;DHT22;8716;52.268;20.968;2022-10-03T13:39:09;16.30;99.90
17200;DHT22;8716;52.268;20.968;2022-10-03T13:41:53;16.30;99.90
17200;DHT22;8716;52.268;20.968;2022-10-03T13:44:34;16.20;99.90
17200;DHT22;8716;52.268;20.968;2022-10-03T13:49:57;16.10;99.90
17200;DHT22;8716;52.268;20.968;2022-10-03T13:52:36;16.10;99.90
17200;DHT22;8716;52.268;20.968;2022-10-03T13:55:14;16.20;99.90
17200;DHT22;8716;52.268;20.968;2022-10-03T13:58:09;16.20;99.90
17200;DHT22;8716;52.268;20.968;2022-10-03T14:00:50;16.20;99.90
17200;DHT22;8716;52.268;20.968;2022-10-03T14:03:29;16.20;99.90
17200;DHT22;8716;52.268;20.968;2022-10-03T14:06:08;16.20;99.90
17200;DHT22;8716;52.268;20.968;2022-10-03T14:11:41;16.10;99.90
17200;DHT22;8716;52.268;20.968;2022-10-03T14:14:39;16.00;99.90
17200;DHT22;8716;52.268;20.968;2022-10-03T14:17:15;16.00;99.90
17200;DHT22;8716;52.268;20.968;2022-10-03T14:20:03;16.00;99.90
17200;DHT22;8716;52.268;20.968;2022-10-03T14:22:47;15.90;99.90
17200;DHT22;8716;52.268;20.968;2022-10-03T14:25:22;15.80;99.90
17200;DHT22;8716;52.268;20.968;2022-10-03T14:27:53;15.80;99.90
17200;DHT22;8716;52.268;20.968;2022-10-03T14:30:24;15.80;99.90
17200;DHT22;8716;52.268;20.968;2022-10-03T14:33:01;15.80;99.90
17200;DHT22;8716;52.268;20.968;2022-10-03T14:35:37;15.60;99.90
17200;DHT22;8716;52.268;20.968;2022-10-03T14:38:16;15.60;99.90
17200;DHT22;8716;52.268;20.968;2022-10-03T14:40:47;15.60;99.90
17200;DHT22;8716;52.268;20.968;2022-10-03T14:43:25;15.50;99.90
17200;DHT22;8716;52.268;20.968;2022-10-03T14:45:57;15.40;99.90
17200;DHT22;8716;52.268;20.968;2022-10-03T14:48:28;15.30;99.90
17200;DHT22;8716;52.268;20.968;2022-10-03T14:51:05;15.30;99.90
17200;DHT22;8716;52.268;20.968;2022-10-03T14:53:36;15.30;99.90
17200;DHT22;8716;52.268;20.968;2022-10-03T14:56:07;15.10;99.90
17200;DHT22;8716;52.268;20.968;2022-10-03T14:58:43;15.10;99.90
17200;DHT22;8716;52.268;20.968;2022-10-03T15:01:14;15.10;99.90
17200;DHT22;8716;52.268;20.968;2022-10-03T15:03:57;15.00;99.90
17200;DHT22;8716;52.268;20.968;2022-10-03T15:06:50;14.90;99.90
17200;DHT22;8716;52.268;20.968;2022-10-03T15:12:11;14.80;99.90
17200;DHT22;8716;52.268;20.968;2022-10-03T15:14:44;14.80;99.90
17200;DHT22;8716;52.268;20.968;2022-10-03T15:17:17;14.70;99.90
17200;DHT22;8716;52.268;20.968;2022-10-03T15:19:50;14.70;99.90
17200;DHT22;8716;52.268;20.968;2022-10-03T15:22:33;14.60;99.90
17200;DHT22;8716;52.268;20.968;2022-10-03T15:25:07;14.60;99.90
17200;DHT22;8716;52.268;20.968;2022-10-03T15:27:41;14.50;99.90
17200;DHT22;8716;52.268;20.968;2022-10-03T15:30:19;14.50;99.90
17200;DHT22;8716;52.268;20.968;2022-10-03T15:32:48;14.60;99.90
17200;DHT22;8716;52.268;20.968;2022-10-03T15:35:20;14.50;99.90
17200;DHT22;8716;52.268;20.968;2022-10-03T15:37:52;14.50;99.90
17200;DHT22;8716;52.268;20.968;2022-10-03T15:40:29;14.50;99.90
17200;DHT22;8716;52.268;20.968;2022-10-03T15:43:04;14.50;99.90
17200;DHT22;8716;52.268;20.968;2022-10-03T15:45:34;14.50;99.90
17200;DHT22;8716;52.268;20.968;2022-10-03T15:48:05;14.40;99.90
17200;DHT22;8716;52.268;20.968;2022-10-03T15:50:40;14.30;99.90
17200;DHT22;8716;52.268;20.968;2022-10-03T15:53:18;14.20;99.90
17200;DHT22;8716;52.268;20.968;2022-10-03T15:56:08;14.20;99.90
17200;DHT22;8716;52.268;20.968;2022-10-03T15:58:42;14.10;99.90
17200;DHT22;8716;52.268;20.968;2022-10-03T16:01:17;14.00;99.90
17200;DHT22;8716;52.268;20.968;2022-10-03T16:03:49;14.00;99.90
17200;DHT22;8716;52.268;20.968;2022-10-03T16:06:20;14.00;99.90
17200;DHT22;8716;52.268;20.968;2022-10-03T16:08:59;13.90;99.90
17200;DHT22;8716;52.268;20.968;2022-10-03T16:11:31;13.90;99.90
17200;DHT22;8716;52.268;20.968;2022-10-03T16:14:16;13.80;99.90
17200;DHT22;8716;52.268;20.968;2022-10-03T16:16:47;13.70;99.90
17200;DHT22;8716;52.268;20.968;2022-10-03T16:19:36;13.60;99.90
17200;DHT22;8716;52.268;20.968;2022-10-03T16:22:15;13.70;99.90
17200;DHT22;8716;52.268;20.968;2022-10-03T16:24:56;13.70;99.90
17200;DHT22;8716;52.268;20.968;2022-10-03T16:27:26;13.70;99.90
17200;DHT22;8716;52.268;20.968;2022-10-03T16:30:15;13.70;99.90
17200;DHT22;8716;52.268;20.968;2022-10-03T16:32:49;13.70;99.90
17200;DHT22;8716;52.268;20.968;2022-10-03T16:35:31;13.70;99.90
17200;DHT22;8716;52.268;20.968;2022-10-03T16:38:01;13.70;99.90
17200;DHT22;8716;52.268;20.968;2022-10-03T16:40:34;13.60;99.90
17200;DHT22;8716;52.268;20.968;2022-10-03T16:43:04;13.50;99.90
17200;DHT22;8716;52.268;20.968;2022-10-03T16:45:39;13.50;99.90
17200;DHT22;8716;52.268;20.968;2022-10-03T16:48:12;13.50;99.90
17200;DHT22;8716;52.268;20.968;2022-10-03T16:50:59;13.40;99.90
17200;DHT22;8716;52.268;20.968;2022-10-03T16:53:28;13.40;99.90
17200;DHT22;8716;52.268;20.968;2022-10-03T16:56:03;13.30;99.90
17200;DHT22;8716;52.268;20.968;2022-10-03T16:58:34;13.40;99.90
17200;DHT22;8716;52.268;20.968;2022-10-03T17:01:08;13.30;99.90
17200;DHT22;8716;52.268;20.968;2022-10-03T17:03:56;13.20;99.90
17200;DHT22;8716;52.268;20.968;2022-10-03T17:06:29;13.20;99.90
17200;DHT22;8716;52.268;20.968;2022-10-03T17:09:01;13.20;99.90
17200;DHT22;8716;52.268;20.968;2022-10-03T17:11:34;13.10;99.90
17200;DHT22;8716;52.268;20.968;2022-10-03T17:14:06;13.10;99.90
17200;DHT22;8716;52.268;20.968;2022-10-03T17:16:36;13.00;99.90
17200;DHT22;8716;52.268;20.968;2022-10-03T17:19:18;12.90;99.90
17200;DHT22;8716;52.268;20.968;2022-10-03T17:21:53;12.90;99.90
17200;DHT22;8716;52.268;20.968;2022-10-03T17:24:36;12.90;99.90
17200;DHT22;8716;52.268;20.968;2022-10-03T17:27:13;12.90;99.90
17200;DHT22;8716;52.268;20.968;2022-10-03T17:29:46;12.90;99.90
17200;DHT22;8716;52.268;20.968;2022-10-03T17:32:21;12.80;99.90
17200;DHT22;8716;52.268;20.968;2022-10-03T17:34:55;12.80;99.90
17200;DHT22;8716;52.268;20.968;2022-10-03T17:37:44;12.80;99.90
17200;DHT22;8716;52.268;20.968;2022-10-03T17:40:19;12.70;99.90
17200;DHT22;8716;52.268;20.968;2022-10-03T17:42:54;12.60;99.90
17200;DHT22;8716;52.268;20.968;2022-10-03T17:45:33;12.60;99.90
17200;DHT22;8716;52.268;20.968;2022-10-03T17:48:11;12.60;99.90
17200;DHT22;8716;52.268;20.968;2022-10-03T17:50:51;12.50;99.90
17200;DHT22;8716;52.268;20.968;2022-10-03T17:53:24;12.50;99.90
17200;DHT22;8716;52.268;20.968;2022-10-03T17:55:56;12.40;99.90
17200;DHT22;8716;52.268;20.968;2022-10-03T17:58:28;12.40;99.90
17200;DHT22;8716;52.268;20.968;2022-10-03T18:01:03;12.40;99.90
17200;DHT22;8716;52.268;20.968;2022-10-03T18:03:38;12.30;99.90
17200;DHT22;8716;52.268;20.968;2022-10-03T18:06:34;12.30;99.90
17200;DHT22;8716;52.268;20.968;2022-10-03T18:09:17;12.20;99.90
17200;DHT22;8716;52.268;20.968;2022-10-03T18:11:51;12.20;99.90
17200;DHT22;8716;52.268;20.968;2022-10-03T18:14:31;12.20;99.90
17200;DHT22;8716;52.268;20.968;2022-10-03T18:17:06;12.20;99.90
17200;DHT22;8716;52.268;20.968;2022-10-03T18:19:53;12.20;99.90
17200;DHT22;8716;52.268;20.968;2022-10-03T18:22:29;12.10;99.90
17200;DHT22;8716;52.268;20.968;2022-10-03T18:25:12;12.00;99.90
17200;DHT22;8716;52.268;20.968;2022-10-03T18:28:06;12.00;99.90
17200;DHT22;8716;52.268;20.968;2022-10-03T18:30:44;12.00;99.90
17200;DHT22;8716;52.268;20.968;2022-10-03T18:33:15;12.00;99.90
17200;DHT22;8716;52.268;20.968;2022-10-03T18:35:47;12.00;99.90
17200;DHT22;8716;52.268;20.968;2022-10-03T18:38:19;12.00;99.90
17200;DHT22;8716;52.268;20.968;2022-10-03T18:40:50;12.00;99.90
17200;DHT22;8716;52.268;20.968;2022-10-03T18:43:26;11.90;99.90
17200;DHT22;8716;52.268;20.968;2022-10-03T18:46:03;11.90;99.90
17200;DHT22;8716;52.268;20.968;2022-10-03T18:48:39;12.00;99.90
17200;DHT22;8716;52.268;20.968;2022-10-03T18:51:12;11.90;99.90
17200;DHT22;8716;52.268;20.968;2022-10-03T18:53:46;11.90;99.90
17200;DHT22;8716;52.268;20.968;2022-10-03T18:56:20;11.90;99.90
17200;DHT22;8716;52.268;20.968;2022-10-03T18:59:14;11.80;99.90
17200;DHT22;8716;52.268;20.968;2022-10-03T19:01:48;11.80;99.90
17200;DHT22;8716;52.268;20.968;2022-10-03T19:04:31;11.80;99.90
17200;DHT22;8716;52.268;20.968;2022-10-03T19:07:09;11.80;99.90
17200;DHT22;8716;52.268;20.968;2022-10-03T19:10:12;11.70;99.90
17200;DHT22;8716;52.268;20.968;2022-10-03T19:12:47;11.80;99.90
17200;DHT22;8716;52.268;20.968;2022-10-03T19:15:20;11.70;99.90
17200;DHT22;8716;52.268;20.968;2022-10-03T19:18:07;11.70;99.90
17200;DHT22;8716;52.268;20.968;2022-10-03T19:20:41;11.70;99.90
17200;DHT22;8716;52.268;20.968;2022-10-03T19:23:12;11.70;99.90
17200;DHT22;8716;52.268;20.968;2022-10-03T19:25:50;11.70;99.90
17200;DHT22;8716;52.268;20.968;2022-10-03T19:28:26;11.70;99.90
17200;DHT22;8716;52.268;20.968;2022-10-03T19:30:58;11.60;99.90
17200;DHT22;8716;52.268;20.968;2022-10-03T19:33:29;11.60;99.90
17200;DHT22;8716;52.268;20.968;2022-10-03T19:36:02;11.50;99.90
17200;DHT22;8716;52.268;20.968;2022-10-03T19:38:34;11.50;99.90
17200;DHT22;8716;52.268;20.968;2022-10-03T19:41:06;11.60;99.90
17200;DHT22;8716;52.268;20.968;2022-10-03T19:43:41;11.50;99.90
17200;DHT22;8716;52.268;20.968;2022-10-03T19:46:17;11.50;99.90
17200;DHT22;8716;52.268;20.968;2022-10-03T19:49:05;11.50;99.90
17200;DHT22;8716;52.268;20.968;2022-10-03T19:51:36;11.50;99.90
17200;DHT22;8716;52.268;20.968;2022-10-03T19:54:11;11.50;99.90
17200;DHT22;8716;52.268;20.968;2022-10-03T19:56:40;11.50;99.90
17200;DHT22;8716;52.268;20.968;2022-10-03T19:59:13;11.50;99.90